createdAt,value
2023-05-20T00:01:08.087Z,90.17
2023-05-20T00:03:37.379Z,90.85
2023-05-20T00:06:06.867Z,90.38
2023-05-20T00:08:36.483Z,90.89
2023-05-20T00:11:06.391Z,91.20
2023-05-20T00:13:36.403Z,91.86
2023-05-20T00:16:07.077Z,92.29
2023-05-20T00:18:36.603Z,92.36
2023-05-20T00:21:06.168Z,92.33
2023-05-20T00:23:36.351Z,92.76
2023-05-20T00:26:05.797Z,92.85
2023-05-20T00:28:35.494Z,92.58
2023-05-20T00:31:05.201Z,92.80
2023-05-20T00:33:36.548Z,92.77
2023-05-20T00:36:06.731Z,92.40
2023-05-20T00:38:36.194Z,92.05
2023-05-20T00:41:05.510Z,92.05
2023-05-20T00:43:34.790Z,91.80
2023-05-20T00:46:04.542Z,91.57
2023-05-20T00:48:43.626Z,91.83
2023-05-20T00:51:14.573Z,91.91
2023-05-20T00:53:44.786Z,91.84
2023-05-20T00:56:15.431Z,92.01
2023-05-20T00:58:45.120Z,92.17
2023-05-20T01:01:15.362Z,92.44
2023-05-20T01:03:45.177Z,92.61
2023-05-20T01:06:14.586Z,92.76
2023-05-20T01:08:44.174Z,93.08
2023-05-20T01:11:34.566Z,93.19
2023-05-20T01:14:10.291Z,93.70
2023-05-20T01:16:39.984Z,93.40
2023-05-20T01:19:35.854Z,93.55
2023-05-20T01:22:12.732Z,93.83
2023-05-20T01:24:49.737Z,93.65
2023-05-20T01:27:22.703Z,93.81
2023-05-20T01:29:53.552Z,93.85
2023-05-20T01:32:28.419Z,94.08
2023-05-20T01:34:59.078Z,94.14
2023-05-20T01:37:30.284Z,94.33
2023-05-20T01:40:01.115Z,94.56
2023-05-20T01:42:30.489Z,94.74
2023-05-20T01:45:00.600Z,95.22
2023-05-20T01:47:30.247Z,94.95
2023-05-20T01:49:59.920Z,95.28
2023-05-20T01:52:31.949Z,95.43
2023-05-20T01:55:01.612Z,95.65
2023-05-20T01:57:31.097Z,96.35
2023-05-20T02:00:00.626Z,96.55
2023-05-20T02:02:30.269Z,96.57
2023-05-20T02:04:59.542Z,96.52
2023-05-20T02:07:28.922Z,96.29
2023-05-20T02:09:58.726Z,96.32
2023-05-20T02:12:28.033Z,96.88
2023-05-20T02:14:57.332Z,97.29
2023-05-20T02:17:27.304Z,97.18
2023-05-20T02:19:56.968Z,97.37
2023-05-20T02:22:26.182Z,97.82
2023-05-20T02:24:55.707Z,98.17
2023-05-20T02:27:25.370Z,98.84
2023-05-20T02:29:54.965Z,98.46
2023-05-20T02:32:28.207Z,99.13
2023-05-20T02:34:57.802Z,99.67
2023-05-20T02:37:27.409Z,100.00
2023-05-20T02:39:56.830Z,100.00
2023-05-20T02:42:26.143Z,100.00
2023-05-20T02:44:58.773Z,100.00
2023-05-20T02:47:28.396Z,100.00
2023-05-20T02:49:57.794Z,100.00
2023-05-20T02:52:27.185Z,100.00
2023-05-20T02:54:56.728Z,100.00
2023-05-20T02:57:27.585Z,100.00
2023-05-20T02:59:57.441Z,100.00
2023-05-20T03:02:26.792Z,100.00
2023-05-20T03:04:56.215Z,100.00
2023-05-20T03:07:26.368Z,100.00
2023-05-20T03:09:55.857Z,100.00
2023-05-20T03:12:26.505Z,100.00
2023-05-20T03:14:55.808Z,100.00
2023-05-20T03:17:25.518Z,100.00
2023-05-20T03:19:54.921Z,100.00
2023-05-20T03:22:25.471Z,100.00
2023-05-20T03:24:55.262Z,100.00
2023-05-20T03:27:26.664Z,100.00
2023-05-20T03:29:56.549Z,100.00
2023-05-20T03:32:26.966Z,100.00
2023-05-20T03:34:58.300Z,100.00
2023-05-20T03:37:27.950Z,100.00
2023-05-20T03:39:57.626Z,100.00
2023-05-20T03:42:27.342Z,100.00
2023-05-20T03:44:57.674Z,100.00
2023-05-20T03:47:29.189Z,100.00
2023-05-20T03:49:58.720Z,100.00
2023-05-20T03:52:28.343Z,100.00
2023-05-20T03:54:58.338Z,100.00
2023-05-20T03:57:27.549Z,100.00
2023-05-20T03:59:56.853Z,100.00
2023-05-20T04:02:26.927Z,100.00
2023-05-20T04:04:57.998Z,100.00
2023-05-20T04:07:27.308Z,100.00
2023-05-20T04:09:56.945Z,100.00
2023-05-20T04:12:30.819Z,100.00
2023-05-20T04:15:03.729Z,100.00
2023-05-20T04:17:40.664Z,100.00
2023-05-20T04:20:11.554Z,100.00
2023-05-20T04:22:40.926Z,100.00
2023-05-20T04:25:11.128Z,100.00
2023-05-20T04:27:40.549Z,100.00
2023-05-20T04:30:11.258Z,100.00
2023-05-20T04:32:42.456Z,100.00
2023-05-20T04:35:14.075Z,100.00
2023-05-20T04:37:48.384Z,100.00
2023-05-20T04:40:19.175Z,100.00
2023-05-20T04:42:48.847Z,100.00
2023-05-20T04:45:18.764Z,100.00
2023-05-20T04:47:48.089Z,100.00
2023-05-20T04:50:17.560Z,100.00
2023-05-20T04:52:47.394Z,100.00
2023-05-20T04:55:16.679Z,100.00
2023-05-20T04:57:45.773Z,100.00
2023-05-20T05:00:16.180Z,100.00
2023-05-20T05:02:45.910Z,100.00
2023-05-20T05:05:15.930Z,100.00
2023-05-20T05:07:45.185Z,100.00
2023-05-20T05:10:16.167Z,97.92
2023-05-20T05:12:45.653Z,93.54
2023-05-20T05:15:15.402Z,89.76
2023-05-20T05:17:46.398Z,86.92
2023-05-20T05:20:16.751Z,81.01
2023-05-20T05:22:46.468Z,79.22
2023-05-20T05:25:16.287Z,77.00
2023-05-20T05:27:45.702Z,75.04
2023-05-20T05:30:15.187Z,72.56
2023-05-20T05:32:44.744Z,72.15
2023-05-20T05:35:14.436Z,68.26
2023-05-20T05:37:44.121Z,66.71
2023-05-20T05:40:14.458Z,66.78
2023-05-20T05:42:44.052Z,63.00
2023-05-20T05:45:14.484Z,62.82
2023-05-20T05:47:44.122Z,61.30
2023-05-20T05:50:13.783Z,59.83
2023-05-20T05:52:42.895Z,60.05
2023-05-20T05:55:12.894Z,60.89
2023-05-20T05:57:42.612Z,58.97
2023-05-20T06:00:13.247Z,57.50
2023-05-20T06:02:49.109Z,57.65
2023-05-20T06:05:33.220Z,56.51
2023-05-20T06:08:03.075Z,55.68
2023-05-20T06:10:35.935Z,55.34
2023-05-20T06:13:05.146Z,54.96
2023-05-20T06:15:36.680Z,53.25
2023-05-20T06:18:06.321Z,53.69
2023-05-20T06:20:36.130Z,53.19
2023-05-20T06:23:05.928Z,51.86
2023-05-20T06:25:44.040Z,53.41
2023-05-20T06:28:13.566Z,50.42
2023-05-20T06:30:44.768Z,50.68
2023-05-20T06:33:14.602Z,50.74
2023-05-20T06:35:44.207Z,52.01
2023-05-20T06:38:13.684Z,53.18
2023-05-20T06:40:43.132Z,53.51
2023-05-20T06:43:12.426Z,54.21
2023-05-20T06:45:56.656Z,54.67
2023-05-20T06:48:31.327Z,55.53
2023-05-20T06:51:01.732Z,54.57
2023-05-20T06:53:31.041Z,55.02
2023-05-20T06:56:01.250Z,54.96
2023-05-20T06:58:30.439Z,55.09
2023-05-20T07:01:00.688Z,56.11
2023-05-20T07:03:30.028Z,55.08
2023-05-20T07:05:59.758Z,53.83
2023-05-20T07:08:29.059Z,54.72
2023-05-20T07:10:58.387Z,53.59
2023-05-20T07:13:27.992Z,54.17
2023-05-20T07:15:57.686Z,54.87
2023-05-20T07:18:28.498Z,55.66
2023-05-20T07:21:00.092Z,56.72
2023-05-20T07:23:56.429Z,57.33
2023-05-20T07:26:25.855Z,56.80
2023-05-20T07:28:55.167Z,56.76
2023-05-20T07:31:25.282Z,56.98
2023-05-20T07:33:55.057Z,55.88
2023-05-20T07:36:28.393Z,55.94
2023-05-20T07:39:04.167Z,55.33
2023-05-20T07:41:38.730Z,55.95
2023-05-20T07:44:09.059Z,56.73
2023-05-20T07:46:42.108Z,56.87
2023-05-20T07:49:13.621Z,57.11
2023-05-20T07:51:43.283Z,57.29
2023-05-20T07:54:13.650Z,56.67
2023-05-20T07:56:43.660Z,55.89
2023-05-20T07:59:14.104Z,56.02
2023-05-20T08:01:47.417Z,56.06
2023-05-20T08:04:18.232Z,56.89
2023-05-20T08:06:49.148Z,58.17
2023-05-20T08:09:23.982Z,57.93
2023-05-20T08:11:57.274Z,55.16
2023-05-20T08:14:26.797Z,54.33
2023-05-20T08:16:56.630Z,54.01
2023-05-20T08:19:26.332Z,52.99
2023-05-20T08:21:55.823Z,50.61
2023-05-20T08:24:25.314Z,49.44
2023-05-20T08:26:55.800Z,50.22
2023-05-20T08:29:26.823Z,49.33
2023-05-20T08:31:56.321Z,50.30
2023-05-20T08:34:27.124Z,50.16
2023-05-20T08:36:57.925Z,49.91
2023-05-20T08:39:27.485Z,50.42
2023-05-20T08:41:58.915Z,49.57
2023-05-20T08:44:28.521Z,49.45
2023-05-20T08:46:58.257Z,49.89
2023-05-20T08:49:27.469Z,48.90
2023-05-20T08:51:56.905Z,48.71
2023-05-20T08:54:33.431Z,49.33
2023-05-20T08:57:03.020Z,48.68
2023-05-20T08:59:33.346Z,49.93
2023-05-20T09:02:03.353Z,46.62
2023-05-20T09:04:32.820Z,46.13
2023-05-20T09:07:02.272Z,45.10
2023-05-20T09:09:34.563Z,44.11
2023-05-20T09:12:04.745Z,43.92
2023-05-20T09:14:33.957Z,42.06
2023-05-20T09:17:05.105Z,42.82
2023-05-20T09:19:34.367Z,41.20
2023-05-20T09:22:05.600Z,41.32
2023-05-20T09:24:35.049Z,39.79
2023-05-20T09:27:06.216Z,38.59
2023-05-20T09:29:35.493Z,38.95
2023-05-20T09:32:05.766Z,37.91
2023-05-20T09:34:35.630Z,36.97
2023-05-20T09:37:08.190Z,34.56
2023-05-20T09:40:01.520Z,34.85
2023-05-20T09:42:38.862Z,35.70
2023-05-20T09:45:12.232Z,36.18
2023-05-20T09:47:43.705Z,36.33
2023-05-20T09:50:13.907Z,36.53
2023-05-20T09:52:44.705Z,36.99
2023-05-20T09:55:15.351Z,37.47
2023-05-20T09:57:44.608Z,37.40
2023-05-20T10:00:17.636Z,37.19
2023-05-20T10:02:51.123Z,36.18
2023-05-20T10:05:37.016Z,36.39
2023-05-20T10:08:37.102Z,36.28
2023-05-20T10:11:48.625Z,36.46
2023-05-20T10:14:55.374Z,36.78
2023-05-20T10:18:03.655Z,37.06
2023-05-20T10:20:33.074Z,37.87
2023-05-20T10:23:02.611Z,37.44
2023-05-20T10:25:35.149Z,37.96
2023-05-20T10:28:13.489Z,36.85
2023-05-20T10:30:51.164Z,35.37
2023-05-20T10:33:20.436Z,36.40
2023-05-20T10:35:53.099Z,35.10
2023-05-20T10:38:22.316Z,35.72
2023-05-20T10:40:52.824Z,35.10
2023-05-20T10:43:29.211Z,35.14
2023-05-20T10:45:59.641Z,34.24
2023-05-20T10:48:33.748Z,33.67
2023-05-20T10:51:07.100Z,33.84
2023-05-20T10:53:42.532Z,31.69
2023-05-20T10:56:26.400Z,31.27
2023-05-20T10:58:56.301Z,31.60
2023-05-20T11:01:27.457Z,32.55
2023-05-20T11:03:58.563Z,32.78
2023-05-20T11:06:29.211Z,31.61
2023-05-20T11:09:08.278Z,31.29
2023-05-20T11:11:38.743Z,31.05
2023-05-20T11:14:08.320Z,32.30
2023-05-20T11:16:37.961Z,31.60
2023-05-20T11:19:17.464Z,30.89
2023-05-20T11:21:47.854Z,32.33
2023-05-20T11:24:27.815Z,32.42
2023-05-20T11:26:58.236Z,30.74
2023-05-20T11:29:29.326Z,30.88
2023-05-20T11:32:00.365Z,31.31
2023-05-20T11:34:39.990Z,31.22
2023-05-20T11:37:11.371Z,30.96
2023-05-20T11:39:40.744Z,30.77
2023-05-20T11:42:10.024Z,30.06
2023-05-20T11:44:45.328Z,29.87
2023-05-20T11:47:14.893Z,29.53
2023-05-20T11:49:48.589Z,29.21
2023-05-20T11:52:17.771Z,28.93
2023-05-20T11:54:53.711Z,29.06
2023-05-20T11:57:23.552Z,29.46
2023-05-20T11:59:53.139Z,27.07
2023-05-20T12:02:22.244Z,26.49
2023-05-20T12:04:51.754Z,26.66
2023-05-20T12:07:21.246Z,26.60
2023-05-20T12:09:50.450Z,27.44
2023-05-20T12:12:20.509Z,27.72
2023-05-20T12:14:49.736Z,27.20
2023-05-20T12:17:18.817Z,27.83
2023-05-20T12:19:48.070Z,27.46
2023-05-20T12:22:17.895Z,27.78
2023-05-20T12:24:47.076Z,27.57
2023-05-20T12:27:16.138Z,27.98
2023-05-20T12:29:46.001Z,28.39
2023-05-20T12:32:15.223Z,28.76
2023-05-20T12:34:44.353Z,28.37
2023-05-20T12:37:13.659Z,28.06
2023-05-20T12:39:43.215Z,28.28
2023-05-20T12:42:12.787Z,28.22
2023-05-20T12:44:42.078Z,28.06
2023-05-20T12:47:11.497Z,28.17
2023-05-20T12:49:40.980Z,28.54
2023-05-20T12:52:18.917Z,30.32
2023-05-20T12:54:52.090Z,32.17
2023-05-20T12:57:23.905Z,33.51
2023-05-20T12:59:53.253Z,34.55
2023-05-20T13:02:22.592Z,34.81
2023-05-20T13:04:51.955Z,34.94
2023-05-20T13:07:21.092Z,34.88
2023-05-20T13:09:50.862Z,35.14
2023-05-20T13:12:21.092Z,34.83
2023-05-20T13:14:50.271Z,34.45
2023-05-20T13:17:20.386Z,34.28
2023-05-20T13:19:50.629Z,33.86
2023-05-20T13:22:19.927Z,33.64
2023-05-20T13:24:49.209Z,33.23
2023-05-20T13:27:18.252Z,33.20
2023-05-20T13:29:47.749Z,33.35
2023-05-20T13:32:17.744Z,33.63
2023-05-20T13:34:47.272Z,33.86
2023-05-20T13:37:16.548Z,34.25
2023-05-20T13:39:46.771Z,34.91
2023-05-20T13:42:16.692Z,35.19
2023-05-20T13:44:45.838Z,35.95
2023-05-20T13:47:15.497Z,36.80
2023-05-20T13:49:44.828Z,37.68
2023-05-20T13:52:14.041Z,39.06
2023-05-20T13:54:44.844Z,39.83
2023-05-20T13:57:14.878Z,40.35
2023-05-20T13:59:44.272Z,41.01
2023-05-20T14:02:13.416Z,41.22
2023-05-20T14:04:45.077Z,41.63
2023-05-20T14:07:14.927Z,41.67
2023-05-20T14:09:44.325Z,42.28
2023-05-20T14:12:13.657Z,42.94
2023-05-20T14:14:43.126Z,43.14
2023-05-20T14:17:12.434Z,43.22
2023-05-20T14:19:41.626Z,43.26
2023-05-20T14:22:13.073Z,43.77
2023-05-20T14:24:42.194Z,43.74
2023-05-20T14:27:11.789Z,43.63
2023-05-20T14:29:41.292Z,43.94
2023-05-20T14:32:13.664Z,44.34
2023-05-20T14:34:42.903Z,44.63
2023-05-20T14:37:12.575Z,45.02
2023-05-20T14:39:42.178Z,45.00
2023-05-20T14:42:12.126Z,45.16
2023-05-20T14:44:41.395Z,45.82
2023-05-20T14:47:10.880Z,45.82
2023-05-20T14:49:41.946Z,45.86
2023-05-20T14:52:11.148Z,45.89
2023-05-20T14:54:40.645Z,45.96
2023-05-20T14:57:10.091Z,46.56
2023-05-20T14:59:39.481Z,46.77
2023-05-20T15:02:09.244Z,46.95
2023-05-20T15:04:40.913Z,46.66
2023-05-20T15:07:10.125Z,47.03
2023-05-20T15:09:39.729Z,46.88
2023-05-20T15:12:11.255Z,47.34
2023-05-20T15:14:40.506Z,47.88
2023-05-20T15:17:10.123Z,48.31
2023-05-20T15:19:41.862Z,49.49
2023-05-20T15:22:11.367Z,49.45
2023-05-20T15:24:40.762Z,50.05
2023-05-20T15:27:10.054Z,50.65
2023-05-20T15:29:40.916Z,50.67
2023-05-20T15:32:10.743Z,50.19
2023-05-20T15:34:40.415Z,49.55
2023-05-20T15:37:09.854Z,49.05
2023-05-20T15:39:39.553Z,48.93
2023-05-20T15:42:13.880Z,49.14
2023-05-20T15:44:43.237Z,49.23
2023-05-20T15:47:12.368Z,49.39
2023-05-20T15:49:41.683Z,48.70
2023-05-20T15:52:11.053Z,47.98
2023-05-20T15:54:40.554Z,47.75
2023-05-20T15:57:10.371Z,47.78
2023-05-20T15:59:39.772Z,47.92
2023-05-20T16:02:09.849Z,47.46
2023-05-20T16:04:42.120Z,47.56
2023-05-20T16:07:12.311Z,47.41
2023-05-20T16:09:41.901Z,47.95
2023-05-20T16:12:14.415Z,48.41
2023-05-20T16:14:45.098Z,49.27
2023-05-20T16:17:14.638Z,49.98
2023-05-20T16:19:43.931Z,50.69
2023-05-20T16:22:14.139Z,51.72
2023-05-20T16:24:43.432Z,53.05
2023-05-20T16:27:13.329Z,53.66
2023-05-20T16:29:42.543Z,54.26
2023-05-20T16:32:12.053Z,54.16
2023-05-20T16:34:41.355Z,54.25
2023-05-20T16:37:11.132Z,54.31
2023-05-20T16:39:40.780Z,54.57
2023-05-20T16:42:10.086Z,55.00
2023-05-20T16:44:39.702Z,54.63
2023-05-20T16:47:09.370Z,55.11
2023-05-20T16:49:39.406Z,56.49
2023-05-20T16:52:08.986Z,57.31
2023-05-20T16:54:38.252Z,58.17
2023-05-20T16:57:08.649Z,58.05
2023-05-20T16:59:38.085Z,58.44
2023-05-20T17:02:07.343Z,58.19
2023-05-20T17:04:37.423Z,58.33
2023-05-20T17:07:10.252Z,58.41
2023-05-20T17:09:40.093Z,58.74
2023-05-20T17:12:09.565Z,59.71
2023-05-20T17:14:39.546Z,59.96
2023-05-20T17:17:09.791Z,61.08
2023-05-20T17:19:39.521Z,61.20
2023-05-20T17:22:09.121Z,61.19
2023-05-20T17:24:38.233Z,61.09
2023-05-20T17:27:08.235Z,62.05
2023-05-20T17:29:38.558Z,62.68
2023-05-20T17:32:08.094Z,62.41
2023-05-20T17:34:37.369Z,63.25
2023-05-20T17:37:06.445Z,63.84
2023-05-20T17:39:35.964Z,63.47
2023-05-20T17:42:06.033Z,66.59
2023-05-20T17:44:35.592Z,65.86
2023-05-20T17:47:05.510Z,65.77
2023-05-20T17:49:34.912Z,65.66
2023-05-20T17:52:04.871Z,65.53
2023-05-20T17:54:34.271Z,67.76
2023-05-20T17:57:04.257Z,67.82
2023-05-20T17:59:42.068Z,67.20
2023-05-20T18:02:12.902Z,67.21
2023-05-20T18:04:42.211Z,67.76
2023-05-20T18:07:13.434Z,68.37
2023-05-20T18:09:43.069Z,69.58
2023-05-20T18:12:12.546Z,69.36
2023-05-20T18:14:42.179Z,69.60
2023-05-20T18:17:11.594Z,69.76
2023-05-20T18:19:41.068Z,69.97
2023-05-20T18:22:11.079Z,70.06
2023-05-20T18:24:40.588Z,69.87
2023-05-20T18:27:10.110Z,71.81
2023-05-20T18:29:39.592Z,71.92
2023-05-20T18:32:09.120Z,71.41
2023-05-20T18:34:38.811Z,71.94
2023-05-20T18:37:08.526Z,71.68
2023-05-20T18:39:37.855Z,72.64
2023-05-20T18:42:07.224Z,72.79
2023-05-20T18:44:36.417Z,73.10
2023-05-20T18:47:06.165Z,73.05
2023-05-20T18:49:35.840Z,73.61
2023-05-20T18:52:06.243Z,73.37
2023-05-20T18:54:36.701Z,73.52
2023-05-20T18:57:08.361Z,74.47
2023-05-20T18:59:38.281Z,74.66
2023-05-20T19:02:07.606Z,74.93
2023-05-20T19:04:36.714Z,74.75
2023-05-20T19:07:06.618Z,75.50
2023-05-20T19:09:35.873Z,74.94
2023-05-20T19:12:06.857Z,75.16
2023-05-20T19:14:36.453Z,75.51
2023-05-20T19:17:06.381Z,76.22
2023-05-20T19:19:36.872Z,76.08
2023-05-20T19:22:06.779Z,76.67
2023-05-20T19:24:36.564Z,76.22
2023-05-20T19:27:06.132Z,76.50
2023-05-20T19:29:35.509Z,76.58
2023-05-20T19:32:06.004Z,76.94
2023-05-20T19:34:35.227Z,76.71
2023-05-20T19:37:05.974Z,76.83
2023-05-20T19:39:35.315Z,76.76
2023-05-20T19:42:05.223Z,76.88
2023-05-20T19:44:34.691Z,77.12
2023-05-20T19:47:07.945Z,76.78
2023-05-20T19:49:37.679Z,76.86
2023-05-20T19:52:08.092Z,76.87
2023-05-20T19:54:37.346Z,77.20
2023-05-20T19:57:06.823Z,77.53
2023-05-20T19:59:38.234Z,77.58
2023-05-20T20:02:07.566Z,77.42
2023-05-20T20:04:37.450Z,77.60
2023-05-20T20:07:08.441Z,77.77
2023-05-20T20:09:38.039Z,78.01
2023-05-20T20:12:07.972Z,78.17
2023-05-20T20:14:37.285Z,78.39
2023-05-20T20:17:06.572Z,78.63
2023-05-20T20:19:36.162Z,78.75
2023-05-20T20:22:05.593Z,79.15
2023-05-20T20:24:35.071Z,79.42
2023-05-20T20:27:06.238Z,80.08
2023-05-20T20:29:35.617Z,79.81
2023-05-20T20:32:06.241Z,80.05
2023-05-20T20:34:35.564Z,80.79
2023-05-20T20:37:05.440Z,81.37
2023-05-20T20:39:37.355Z,81.43
2023-05-20T20:42:06.939Z,81.65
2023-05-20T20:44:36.334Z,82.11
2023-05-20T20:47:05.833Z,82.32
2023-05-20T20:49:35.972Z,82.13
2023-05-20T20:52:06.132Z,82.12
2023-05-20T20:54:35.504Z,81.97
2023-05-20T20:57:05.751Z,82.20
2023-05-20T20:59:35.446Z,81.87
2023-05-20T21:02:05.054Z,81.76
2023-05-20T21:04:34.336Z,81.69
2023-05-20T21:07:03.867Z,81.74
2023-05-20T21:09:33.331Z,82.10
2023-05-20T21:12:06.871Z,81.83
2023-05-20T21:14:36.824Z,82.80
2023-05-20T21:17:06.388Z,82.88
2023-05-20T21:19:36.381Z,83.10
2023-05-20T21:22:05.808Z,83.35
2023-05-20T21:24:35.141Z,83.76
2023-05-20T21:27:04.576Z,84.68
2023-05-20T21:29:35.345Z,85.56
2023-05-20T21:32:05.577Z,86.05
2023-05-20T21:34:34.958Z,87.10
2023-05-20T21:37:04.658Z,86.99
2023-05-20T21:39:34.634Z,87.24
2023-05-20T21:42:04.192Z,87.69
2023-05-20T21:44:34.005Z,88.00
2023-05-20T21:47:03.086Z,88.34
2023-05-20T21:49:33.209Z,88.38
2023-05-20T21:52:02.340Z,89.03
2023-05-20T21:54:31.708Z,88.79
2023-05-20T21:57:02.804Z,89.35
2023-05-20T21:59:32.363Z,89.03
2023-05-20T22:02:01.638Z,89.37
2023-05-20T22:04:33.544Z,89.94
2023-05-20T22:07:05.801Z,89.98
2023-05-20T22:09:35.551Z,90.18
2023-05-20T22:12:05.478Z,90.33
2023-05-20T22:14:35.057Z,90.49
2023-05-20T22:17:04.544Z,90.91
2023-05-20T22:19:34.406Z,90.93
2023-05-20T22:22:04.132Z,91.06
2023-05-20T22:24:33.459Z,90.93
2023-05-20T22:27:04.082Z,90.79
2023-05-20T22:29:33.604Z,91.44
2023-05-20T22:32:03.517Z,91.34
2023-05-20T22:34:33.019Z,91.76
2023-05-20T22:37:03.240Z,91.86
2023-05-20T22:39:32.978Z,92.32
2023-05-20T22:42:04.400Z,92.18
2023-05-20T22:44:33.702Z,92.17
2023-05-20T22:47:03.096Z,92.51
2023-05-20T22:49:32.779Z,92.18
2023-05-20T22:52:02.341Z,93.24
2023-05-20T22:54:31.601Z,93.21
2023-05-20T22:57:00.798Z,92.47
2023-05-20T22:59:31.419Z,93.02
2023-05-20T23:02:00.651Z,93.04
2023-05-20T23:04:30.060Z,93.04
2023-05-20T23:07:00.241Z,93.09
2023-05-20T23:09:29.611Z,93.35
2023-05-20T23:11:58.983Z,94.08
2023-05-20T23:14:28.145Z,94.52
2023-05-20T23:16:57.619Z,94.01
2023-05-20T23:19:26.931Z,93.62
2023-05-20T23:21:57.053Z,93.73
2023-05-20T23:24:26.845Z,93.53
2023-05-20T23:26:56.125Z,93.76
2023-05-20T23:29:26.985Z,93.35
2023-05-20T23:31:56.354Z,93.52
2023-05-20T23:34:27.586Z,93.58
2023-05-20T23:36:57.147Z,93.61
2023-05-20T23:39:26.615Z,93.41
2023-05-20T23:41:55.835Z,93.57
2023-05-20T23:44:25.264Z,93.84
2023-05-20T23:46:54.723Z,94.21
2023-05-20T23:49:27.320Z,94.25
2023-05-20T23:51:56.895Z,94.86
2023-05-20T23:54:26.308Z,95.03
2023-05-20T23:56:55.672Z,94.91
2023-05-20T23:59:24.909Z,95.16
